sensor_id;sensor_type;location;lat;lon;timestamp;P1;durP1;ratioP1;P2;durP2;ratioP2
8213;SDS011;4148;47.974;7.824;2024-03-02T00:01:54;3.50;;;2.30;;
8213;SDS011;4148;47.974;7.824;2024-03-02T00:04:22;3.77;;;2.40;;
8213;SDS011;4148;47.974;7.824;2024-03-02T00:06:51;4.50;;;2.50;;
8213;SDS011;4148;47.974;7.824;2024-03-02T00:09:19;4.10;;;2.30;;
8213;SDS011;4148;47.974;7.824;2024-03-02T00:11:49;3.77;;;2.33;;
8213;SDS011;4148;47.974;7.824;2024-03-02T00:14:17;3.90;;;2.73;;
8213;SDS011;4148;47.974;7.824;2024-03-02T00:16:45;4.83;;;2.70;;
8213;SDS011;4148;47.974;7.824;2024-03-02T00:19:13;2.30;;;2.03;;
8213;SDS011;4148;47.974;7.824;2024-03-02T00:21:41;5.57;;;3.00;;
8213;SDS011;4148;47.974;7.824;2024-03-02T00:24:20;4.57;;;2.80;;
8213;SDS011;4148;47.974;7.824;2024-03-02T00:26:55;3.77;;;2.50;;
8213;SDS011;4148;47.974;7.824;2024-03-02T00:29:23;3.23;;;2.80;;
8213;SDS011;4148;47.974;7.824;2024-03-02T00:31:51;3.87;;;2.30;;
8213;SDS011;4148;47.974;7.824;2024-03-02T00:34:19;3.03;;;2.00;;
8213;SDS011;4148;47.974;7.824;2024-03-02T00:36:48;4.10;;;2.47;;
8213;SDS011;4148;47.974;7.824;2024-03-02T00:39:16;4.37;;;2.60;;
8213;SDS011;4148;47.974;7.824;2024-03-02T00:41:44;4.00;;;2.37;;
8213;SDS011;4148;47.974;7.824;2024-03-02T00:44:14;5.67;;;2.97;;
8213;SDS011;4148;47.974;7.824;2024-03-02T00:46:43;4.37;;;2.17;;
8213;SDS011;4148;47.974;7.824;2024-03-02T00:49:12;3.33;;;2.43;;
8213;SDS011;4148;47.974;7.824;2024-03-02T00:51:47;5.50;;;2.50;;
8213;SDS011;4148;47.974;7.824;2024-03-02T00:54:18;3.20;;;2.00;;
8213;SDS011;4148;47.974;7.824;2024-03-02T00:56:47;3.87;;;1.90;;
8213;SDS011;4148;47.974;7.824;2024-03-02T00:59:17;2.30;;;1.90;;
8213;SDS011;4148;47.974;7.824;2024-03-02T01:01:45;3.20;;;2.00;;
8213;SDS011;4148;47.974;7.824;2024-03-02T01:04:13;3.57;;;2.03;;
8213;SDS011;4148;47.974;7.824;2024-03-02T01:06:41;2.80;;;2.07;;
8213;SDS011;4148;47.974;7.824;2024-03-02T01:09:09;3.17;;;2.30;;
8213;SDS011;4148;47.974;7.824;2024-03-02T01:11:38;2.50;;;2.10;;
8213;SDS011;4148;47.974;7.824;2024-03-02T01:14:06;3.37;;;2.10;;
8213;SDS011;4148;47.974;7.824;2024-03-02T01:16:36;3.80;;;1.90;;
8213;SDS011;4148;47.974;7.824;2024-03-02T01:19:04;3.63;;;2.20;;
8213;SDS011;4148;47.974;7.824;2024-03-02T01:21:32;5.20;;;1.60;;
8213;SDS011;4148;47.974;7.824;2024-03-02T01:24:00;2.87;;;1.70;;
8213;SDS011;4148;47.974;7.824;2024-03-02T01:26:28;4.00;;;2.00;;
8213;SDS011;4148;47.974;7.824;2024-03-02T01:28:57;3.70;;;2.20;;
8213;SDS011;4148;47.974;7.824;2024-03-02T01:31:24;2.83;;;2.20;;
8213;SDS011;4148;47.974;7.824;2024-03-02T01:33:54;3.70;;;2.10;;
8213;SDS011;4148;47.974;7.824;2024-03-02T01:36:22;3.67;;;2.00;;
8213;SDS011;4148;47.974;7.824;2024-03-02T01:38:50;4.03;;;2.30;;
8213;SDS011;4148;47.974;7.824;2024-03-02T01:41:18;2.87;;;2.10;;
8213;SDS011;4148;47.974;7.824;2024-03-02T01:43:46;2.50;;;1.93;;
8213;SDS011;4148;47.974;7.824;2024-03-02T01:46:13;4.03;;;2.07;;
8213;SDS011;4148;47.974;7.824;2024-03-02T01:48:41;2.43;;;1.87;;
8213;SDS011;4148;47.974;7.824;2024-03-02T01:51:11;2.63;;;1.83;;
8213;SDS011;4148;47.974;7.824;2024-03-02T01:53:39;2.40;;;1.70;;
8213;SDS011;4148;47.974;7.824;2024-03-02T01:56:07;2.37;;;1.70;;
8213;SDS011;4148;47.974;7.824;2024-03-02T01:58:35;2.57;;;1.70;;
8213;SDS011;4148;47.974;7.824;2024-03-02T02:01:03;2.90;;;1.70;;
8213;SDS011;4148;47.974;7.824;2024-03-02T02:03:31;2.50;;;1.80;;
8213;SDS011;4148;47.974;7.824;2024-03-02T02:05:59;3.67;;;2.00;;
8213;SDS011;4148;47.974;7.824;2024-03-02T02:08:28;2.43;;;1.90;;
8213;SDS011;4148;47.974;7.824;2024-03-02T02:10:56;3.30;;;1.70;;
8213;SDS011;4148;47.974;7.824;2024-03-02T02:13:25;2.80;;;1.73;;
8213;SDS011;4148;47.974;7.824;2024-03-02T02:15:52;2.00;;;1.40;;
8213;SDS011;4148;47.974;7.824;2024-03-02T02:18:20;2.33;;;1.60;;
8213;SDS011;4148;47.974;7.824;2024-03-02T02:20:49;17.20;;;8.47;;
8213;SDS011;4148;47.974;7.824;2024-03-02T02:23:18;2.00;;;1.60;;
8213;SDS011;4148;47.974;7.824;2024-03-02T02:25:46;2.30;;;1.80;;
8213;SDS011;4148;47.974;7.824;2024-03-02T02:28:14;3.40;;;1.80;;
8213;SDS011;4148;47.974;7.824;2024-03-02T02:30:42;2.77;;;1.73;;
8213;SDS011;4148;47.974;7.824;2024-03-02T02:33:10;2.23;;;1.40;;
8213;SDS011;4148;47.974;7.824;2024-03-02T02:35:38;2.20;;;1.50;;
8213;SDS011;4148;47.974;7.824;2024-03-02T02:38:06;1.90;;;1.23;;
8213;SDS011;4148;47.974;7.824;2024-03-02T02:40:35;2.03;;;1.40;;
8213;SDS011;4148;47.974;7.824;2024-03-02T02:43:03;4.00;;;1.20;;
8213;SDS011;4148;47.974;7.824;2024-03-02T02:45:31;2.33;;;1.27;;
8213;SDS011;4148;47.974;7.824;2024-03-02T02:47:59;1.80;;;1.23;;
8213;SDS011;4148;47.974;7.824;2024-03-02T02:50:29;2.20;;;1.30;;
8213;SDS011;4148;47.974;7.824;2024-03-02T02:52:57;3.60;;;1.23;;
8213;SDS011;4148;47.974;7.824;2024-03-02T02:55:24;2.63;;;1.20;;
8213;SDS011;4148;47.974;7.824;2024-03-02T02:57:54;2.13;;;1.30;;
8213;SDS011;4148;47.974;7.824;2024-03-02T03:00:22;2.53;;;1.23;;
8213;SDS011;4148;47.974;7.824;2024-03-02T03:02:50;2.60;;;1.20;;
8213;SDS011;4148;47.974;7.824;2024-03-02T03:05:18;1.63;;;1.07;;
8213;SDS011;4148;47.974;7.824;2024-03-02T03:07:46;1.83;;;1.13;;
8213;SDS011;4148;47.974;7.824;2024-03-02T03:10:16;2.17;;;1.53;;
8213;SDS011;4148;47.974;7.824;2024-03-02T03:12:44;2.00;;;1.27;;
8213;SDS011;4148;47.974;7.824;2024-03-02T03:15:14;2.03;;;1.27;;
8213;SDS011;4148;47.974;7.824;2024-03-02T03:17:43;1.90;;;1.20;;
8213;SDS011;4148;47.974;7.824;2024-03-02T03:20:12;2.37;;;1.23;;
8213;SDS011;4148;47.974;7.824;2024-03-02T03:22:41;2.77;;;1.30;;
8213;SDS011;4148;47.974;7.824;2024-03-02T03:25:09;1.77;;;1.17;;
8213;SDS011;4148;47.974;7.824;2024-03-02T03:27:37;2.20;;;1.20;;
8213;SDS011;4148;47.974;7.824;2024-03-02T03:30:05;1.40;;;1.10;;
8213;SDS011;4148;47.974;7.824;2024-03-02T03:32:36;2.00;;;1.30;;
8213;SDS011;4148;47.974;7.824;2024-03-02T03:35:04;1.80;;;1.20;;
8213;SDS011;4148;47.974;7.824;2024-03-02T03:37:32;1.93;;;1.10;;
8213;SDS011;4148;47.974;7.824;2024-03-02T03:40:01;1.60;;;1.13;;
8213;SDS011;4148;47.974;7.824;2024-03-02T03:42:33;3.83;;;1.37;;
8213;SDS011;4148;47.974;7.824;2024-03-02T03:45:01;1.70;;;1.10;;
8213;SDS011;4148;47.974;7.824;2024-03-02T03:47:30;2.57;;;1.13;;
8213;SDS011;4148;47.974;7.824;2024-03-02T03:50:00;2.13;;;1.50;;
8213;SDS011;4148;47.974;7.824;2024-03-02T03:52:30;1.73;;;1.13;;
8213;SDS011;4148;47.974;7.824;2024-03-02T03:54:58;1.60;;;1.03;;
8213;SDS011;4148;47.974;7.824;2024-03-02T03:57:27;1.47;;;1.10;;
8213;SDS011;4148;47.974;7.824;2024-03-02T03:59:55;2.33;;;1.40;;
8213;SDS011;4148;47.974;7.824;2024-03-02T04:02:23;1.43;;;1.10;;
8213;SDS011;4148;47.974;7.824;2024-03-02T04:04:51;1.67;;;1.23;;
8213;SDS011;4148;47.974;7.824;2024-03-02T04:07:20;2.40;;;1.27;;
8213;SDS011;4148;47.974;7.824;2024-03-02T04:09:48;1.80;;;1.10;;
8213;SDS011;4148;47.974;7.824;2024-03-02T04:12:16;2.17;;;1.40;;
8213;SDS011;4148;47.974;7.824;2024-03-02T04:14:44;1.70;;;1.10;;
8213;SDS011;4148;47.974;7.824;2024-03-02T04:17:12;2.87;;;1.10;;
8213;SDS011;4148;47.974;7.824;2024-03-02T04:19:40;2.70;;;1.20;;
8213;SDS011;4148;47.974;7.824;2024-03-02T04:22:08;1.80;;;1.37;;
8213;SDS011;4148;47.974;7.824;2024-03-02T04:24:48;2.07;;;1.50;;
8213;SDS011;4148;47.974;7.824;2024-03-02T04:27:15;1.70;;;1.20;;
8213;SDS011;4148;47.974;7.824;2024-03-02T04:29:43;1.90;;;1.40;;
8213;SDS011;4148;47.974;7.824;2024-03-02T04:32:11;1.40;;;1.00;;
8213;SDS011;4148;47.974;7.824;2024-03-02T04:34:39;1.80;;;1.23;;
8213;SDS011;4148;47.974;7.824;2024-03-02T04:37:07;2.27;;;1.33;;
8213;SDS011;4148;47.974;7.824;2024-03-02T04:39:36;2.00;;;0.90;;
8213;SDS011;4148;47.974;7.824;2024-03-02T04:42:05;1.60;;;1.00;;
8213;SDS011;4148;47.974;7.824;2024-03-02T04:44:33;2.57;;;1.03;;
8213;SDS011;4148;47.974;7.824;2024-03-02T04:47:01;1.60;;;0.90;;
8213;SDS011;4148;47.974;7.824;2024-03-02T04:49:29;2.23;;;0.90;;
8213;SDS011;4148;47.974;7.824;2024-03-02T04:51:57;2.63;;;1.00;;
8213;SDS011;4148;47.974;7.824;2024-03-02T04:54:25;1.50;;;1.03;;
8213;SDS011;4148;47.974;7.824;2024-03-02T04:56:53;1.60;;;1.20;;
8213;SDS011;4148;47.974;7.824;2024-03-02T04:59:22;1.97;;;1.20;;
8213;SDS011;4148;47.974;7.824;2024-03-02T05:01:50;3.43;;;1.30;;
8213;SDS011;4148;47.974;7.824;2024-03-02T05:04:18;1.50;;;1.03;;
8213;SDS011;4148;47.974;7.824;2024-03-02T05:06:46;1.90;;;1.10;;
8213;SDS011;4148;47.974;7.824;2024-03-02T05:09:19;3.70;;;1.20;;
8213;SDS011;4148;47.974;7.824;2024-03-02T05:11:47;2.77;;;1.10;;
8213;SDS011;4148;47.974;7.824;2024-03-02T05:14:37;2.20;;;1.10;;
8213;SDS011;4148;47.974;7.824;2024-03-02T05:17:04;1.80;;;1.13;;
8213;SDS011;4148;47.974;7.824;2024-03-02T05:19:32;2.83;;;1.70;;
8213;SDS011;4148;47.974;7.824;2024-03-02T05:22:00;2.93;;;1.40;;
8213;SDS011;4148;47.974;7.824;2024-03-02T05:24:29;2.73;;;1.63;;
8213;SDS011;4148;47.974;7.824;2024-03-02T05:26:57;2.37;;;1.40;;
8213;SDS011;4148;47.974;7.824;2024-03-02T05:29:25;2.00;;;1.30;;
8213;SDS011;4148;47.974;7.824;2024-03-02T05:31:55;2.40;;;1.40;;
8213;SDS011;4148;47.974;7.824;2024-03-02T05:34:22;3.00;;;1.40;;
8213;SDS011;4148;47.974;7.824;2024-03-02T05:36:50;2.27;;;1.43;;
8213;SDS011;4148;47.974;7.824;2024-03-02T05:39:19;2.90;;;1.50;;
8213;SDS011;4148;47.974;7.824;2024-03-02T05:41:46;2.50;;;1.60;;
8213;SDS011;4148;47.974;7.824;2024-03-02T05:44:14;2.00;;;1.30;;
8213;SDS011;4148;47.974;7.824;2024-03-02T05:46:42;3.60;;;1.50;;
8213;SDS011;4148;47.974;7.824;2024-03-02T05:49:11;3.10;;;1.40;;
8213;SDS011;4148;47.974;7.824;2024-03-02T05:51:39;2.70;;;1.67;;
8213;SDS011;4148;47.974;7.824;2024-03-02T05:54:07;4.80;;;2.13;;
8213;SDS011;4148;47.974;7.824;2024-03-02T05:56:35;7.20;;;2.13;;
8213;SDS011;4148;47.974;7.824;2024-03-02T05:59:03;6.43;;;2.10;;
8213;SDS011;4148;47.974;7.824;2024-03-02T06:01:39;7.30;;;2.70;;
8213;SDS011;4148;47.974;7.824;2024-03-02T06:04:07;4.40;;;2.40;;
8213;SDS011;4148;47.974;7.824;2024-03-02T06:06:36;5.80;;;2.73;;
8213;SDS011;4148;47.974;7.824;2024-03-02T06:09:05;7.43;;;3.17;;
8213;SDS011;4148;47.974;7.824;2024-03-02T06:11:34;5.10;;;2.57;;
8213;SDS011;4148;47.974;7.824;2024-03-02T06:14:02;6.07;;;2.63;;
8213;SDS011;4148;47.974;7.824;2024-03-02T06:16:30;7.23;;;3.10;;
8213;SDS011;4148;47.974;7.824;2024-03-02T06:18:59;8.27;;;3.67;;
8213;SDS011;4148;47.974;7.824;2024-03-02T06:21:27;7.47;;;3.10;;
8213;SDS011;4148;47.974;7.824;2024-03-02T06:23:56;5.40;;;2.73;;
8213;SDS011;4148;47.974;7.824;2024-03-02T06:26:24;10.13;;;2.50;;
8213;SDS011;4148;47.974;7.824;2024-03-02T06:28:52;8.37;;;2.53;;
8213;SDS011;4148;47.974;7.824;2024-03-02T06:31:20;6.13;;;2.70;;
8213;SDS011;4148;47.974;7.824;2024-03-02T06:33:48;4.83;;;2.27;;
8213;SDS011;4148;47.974;7.824;2024-03-02T06:36:16;5.10;;;2.30;;
8213;SDS011;4148;47.974;7.824;2024-03-02T06:38:44;4.40;;;2.50;;
8213;SDS011;4148;47.974;7.824;2024-03-02T06:41:13;7.33;;;4.00;;
8213;SDS011;4148;47.974;7.824;2024-03-02T06:43:41;6.70;;;3.30;;
8213;SDS011;4148;47.974;7.824;2024-03-02T06:46:09;9.33;;;3.73;;
8213;SDS011;4148;47.974;7.824;2024-03-02T06:48:40;10.20;;;4.03;;
8213;SDS011;4148;47.974;7.824;2024-03-02T06:51:08;8.27;;;3.90;;
8213;SDS011;4148;47.974;7.824;2024-03-02T06:53:37;10.53;;;4.80;;
8213;SDS011;4148;47.974;7.824;2024-03-02T06:56:06;8.80;;;3.90;;
8213;SDS011;4148;47.974;7.824;2024-03-02T06:58:35;10.93;;;5.00;;
8213;SDS011;4148;47.974;7.824;2024-03-02T07:01:03;8.60;;;5.50;;
8213;SDS011;4148;47.974;7.824;2024-03-02T07:03:31;9.53;;;5.20;;
8213;SDS011;4148;47.974;7.824;2024-03-02T07:06:00;11.17;;;5.37;;
8213;SDS011;4148;47.974;7.824;2024-03-02T07:08:28;17.60;;;6.70;;
8213;SDS011;4148;47.974;7.824;2024-03-02T07:10:55;15.57;;;7.00;;
8213;SDS011;4148;47.974;7.824;2024-03-02T07:13:24;12.20;;;6.70;;
8213;SDS011;4148;47.974;7.824;2024-03-02T07:15:53;12.47;;;6.37;;
8213;SDS011;4148;47.974;7.824;2024-03-02T07:18:38;14.53;;;6.00;;
8213;SDS011;4148;47.974;7.824;2024-03-02T07:21:08;11.60;;;5.23;;
8213;SDS011;4148;47.974;7.824;2024-03-02T07:23:36;13.10;;;5.33;;
8213;SDS011;4148;47.974;7.824;2024-03-02T07:26:03;9.87;;;4.20;;
8213;SDS011;4148;47.974;7.824;2024-03-02T07:28:35;11.70;;;5.50;;
8213;SDS011;4148;47.974;7.824;2024-03-02T07:31:04;10.40;;;4.30;;
8213;SDS011;4148;47.974;7.824;2024-03-02T07:33:33;7.20;;;4.03;;
8213;SDS011;4148;47.974;7.824;2024-03-02T07:36:01;7.73;;;5.10;;
8213;SDS011;4148;47.974;7.824;2024-03-02T07:38:30;9.30;;;6.33;;
8213;SDS011;4148;47.974;7.824;2024-03-02T07:40:59;8.50;;;5.20;;
8213;SDS011;4148;47.974;7.824;2024-03-02T07:43:27;9.70;;;4.87;;
8213;SDS011;4148;47.974;7.824;2024-03-02T07:45:55;10.87;;;5.50;;
8213;SDS011;4148;47.974;7.824;2024-03-02T07:48:25;9.13;;;4.67;;
8213;SDS011;4148;47.974;7.824;2024-03-02T07:50:54;11.43;;;6.00;;
8213;SDS011;4148;47.974;7.824;2024-03-02T07:53:21;9.00;;;6.00;;
8213;SDS011;4148;47.974;7.824;2024-03-02T07:55:49;10.20;;;5.73;;
8213;SDS011;4148;47.974;7.824;2024-03-02T07:58:17;11.40;;;6.40;;
8213;SDS011;4148;47.974;7.824;2024-03-02T08:00:46;11.57;;;6.03;;
8213;SDS011;4148;47.974;7.824;2024-03-02T08:03:16;11.70;;;6.93;;
8213;SDS011;4148;47.974;7.824;2024-03-02T08:05:45;12.33;;;5.90;;
8213;SDS011;4148;47.974;7.824;2024-03-02T08:08:13;9.03;;;5.60;;
8213;SDS011;4148;47.974;7.824;2024-03-02T08:10:41;11.07;;;5.80;;
8213;SDS011;4148;47.974;7.824;2024-03-02T08:13:09;10.50;;;6.00;;
8213;SDS011;4148;47.974;7.824;2024-03-02T08:15:37;17.30;;;5.63;;
8213;SDS011;4148;47.974;7.824;2024-03-02T08:18:05;6.30;;;4.50;;
8213;SDS011;4148;47.974;7.824;2024-03-02T08:20:34;10.60;;;4.63;;
8213;SDS011;4148;47.974;7.824;2024-03-02T08:23:03;12.70;;;4.60;;
8213;SDS011;4148;47.974;7.824;2024-03-02T08:25:32;6.20;;;4.00;;
8213;SDS011;4148;47.974;7.824;2024-03-02T08:28:00;4.57;;;3.10;;
8213;SDS011;4148;47.974;7.824;2024-03-02T08:30:28;5.23;;;3.10;;
8213;SDS011;4148;47.974;7.824;2024-03-02T08:32:56;3.83;;;3.00;;
8213;SDS011;4148;47.974;7.824;2024-03-02T08:35:23;2.03;;;1.33;;
8213;SDS011;4148;47.974;7.824;2024-03-02T08:37:51;4.70;;;1.40;;
8213;SDS011;4148;47.974;7.824;2024-03-02T08:40:21;2.23;;;1.90;;
8213;SDS011;4148;47.974;7.824;2024-03-02T08:42:49;2.50;;;1.53;;
8213;SDS011;4148;47.974;7.824;2024-03-02T08:45:17;2.10;;;1.40;;
8213;SDS011;4148;47.974;7.824;2024-03-02T08:47:46;2.60;;;1.27;;
8213;SDS011;4148;47.974;7.824;2024-03-02T08:50:15;2.37;;;1.40;;
8213;SDS011;4148;47.974;7.824;2024-03-02T08:52:43;2.13;;;1.27;;
8213;SDS011;4148;47.974;7.824;2024-03-02T08:55:11;2.90;;;1.53;;
8213;SDS011;4148;47.974;7.824;2024-03-02T08:57:41;2.13;;;1.60;;
8213;SDS011;4148;47.974;7.824;2024-03-02T09:00:09;1.60;;;1.00;;
8213;SDS011;4148;47.974;7.824;2024-03-02T09:02:38;1.73;;;1.03;;
8213;SDS011;4148;47.974;7.824;2024-03-02T09:05:06;1.37;;;0.80;;
8213;SDS011;4148;47.974;7.824;2024-03-02T09:07:35;1.27;;;0.80;;
8213;SDS011;4148;47.974;7.824;2024-03-02T09:10:05;1.40;;;0.90;;
8213;SDS011;4148;47.974;7.824;2024-03-02T09:12:33;1.50;;;0.80;;
8213;SDS011;4148;47.974;7.824;2024-03-02T09:15:03;1.40;;;0.80;;
8213;SDS011;4148;47.974;7.824;2024-03-02T09:17:32;2.73;;;1.20;;
8213;SDS011;4148;47.974;7.824;2024-03-02T09:20:00;1.40;;;1.00;;
8213;SDS011;4148;47.974;7.824;2024-03-02T09:22:30;2.13;;;1.10;;
8213;SDS011;4148;47.974;7.824;2024-03-02T09:24:58;3.13;;;2.00;;
8213;SDS011;4148;47.974;7.824;2024-03-02T09:27:26;2.37;;;1.57;;
8213;SDS011;4148;47.974;7.824;2024-03-02T09:29:54;1.47;;;0.90;;
8213;SDS011;4148;47.974;7.824;2024-03-02T09:32:24;2.07;;;1.20;;
8213;SDS011;4148;47.974;7.824;2024-03-02T09:34:52;2.37;;;1.50;;
8213;SDS011;4148;47.974;7.824;2024-03-02T09:37:19;2.30;;;1.60;;
8213;SDS011;4148;47.974;7.824;2024-03-02T09:39:47;2.37;;;1.70;;
8213;SDS011;4148;47.974;7.824;2024-03-02T09:42:16;4.63;;;2.00;;
8213;SDS011;4148;47.974;7.824;2024-03-02T09:44:45;3.47;;;3.07;;
8213;SDS011;4148;47.974;7.824;2024-03-02T09:47:14;3.60;;;2.97;;
8213;SDS011;4148;47.974;7.824;2024-03-02T09:49:43;1.87;;;1.20;;
8213;SDS011;4148;47.974;7.824;2024-03-02T09:52:11;1.60;;;0.97;;
8213;SDS011;4148;47.974;7.824;2024-03-02T09:54:41;1.40;;;0.93;;
8213;SDS011;4148;47.974;7.824;2024-03-02T09:57:09;1.60;;;1.00;;
8213;SDS011;4148;47.974;7.824;2024-03-02T09:59:37;1.40;;;0.93;;
8213;SDS011;4148;47.974;7.824;2024-03-02T10:02:05;1.87;;;1.20;;
8213;SDS011;4148;47.974;7.824;2024-03-02T10:04:33;1.73;;;1.30;;
8213;SDS011;4148;47.974;7.824;2024-03-02T10:07:10;1.60;;;1.07;;
8213;SDS011;4148;47.974;7.824;2024-03-02T10:09:39;1.50;;;1.00;;
8213;SDS011;4148;47.974;7.824;2024-03-02T10:12:09;1.60;;;1.10;;
8213;SDS011;4148;47.974;7.824;2024-03-02T10:14:38;1.80;;;1.30;;
8213;SDS011;4148;47.974;7.824;2024-03-02T10:17:07;1.80;;;1.30;;
8213;SDS011;4148;47.974;7.824;2024-03-02T10:19:36;1.70;;;1.40;;
8213;SDS011;4148;47.974;7.824;2024-03-02T10:22:06;1.93;;;1.20;;
8213;SDS011;4148;47.974;7.824;2024-03-02T10:24:36;1.87;;;1.30;;
8213;SDS011;4148;47.974;7.824;2024-03-02T10:27:09;1.90;;;1.40;;
8213;SDS011;4148;47.974;7.824;2024-03-02T10:29:38;1.97;;;1.30;;
8213;SDS011;4148;47.974;7.824;2024-03-02T10:32:10;2.20;;;1.40;;
8213;SDS011;4148;47.974;7.824;2024-03-02T10:34:39;1.87;;;1.20;;
8213;SDS011;4148;47.974;7.824;2024-03-02T10:37:08;1.87;;;1.40;;
8213;SDS011;4148;47.974;7.824;2024-03-02T10:39:39;1.80;;;1.10;;
8213;SDS011;4148;47.974;7.824;2024-03-02T10:42:08;2.30;;;1.20;;
8213;SDS011;4148;47.974;7.824;2024-03-02T10:44:36;3.83;;;1.30;;
8213;SDS011;4148;47.974;7.824;2024-03-02T10:47:06;1.53;;;1.03;;
8213;SDS011;4148;47.974;7.824;2024-03-02T10:49:39;1.70;;;1.30;;
8213;SDS011;4148;47.974;7.824;2024-03-02T10:52:09;1.93;;;1.20;;
8213;SDS011;4148;47.974;7.824;2024-03-02T10:54:39;1.40;;;1.10;;
8213;SDS011;4148;47.974;7.824;2024-03-02T10:57:07;2.77;;;1.33;;
8213;SDS011;4148;47.974;7.824;2024-03-02T10:59:37;1.50;;;1.13;;
8213;SDS011;4148;47.974;7.824;2024-03-02T11:02:15;2.07;;;1.40;;
8213;SDS011;4148;47.974;7.824;2024-03-02T11:04:44;1.53;;;1.20;;
8213;SDS011;4148;47.974;7.824;2024-03-02T11:07:13;1.80;;;1.20;;
8213;SDS011;4148;47.974;7.824;2024-03-02T11:09:45;1.50;;;1.20;;
8213;SDS011;4148;47.974;7.824;2024-03-02T11:12:23;1.60;;;1.20;;
8213;SDS011;4148;47.974;7.824;2024-03-02T11:14:56;2.50;;;1.30;;
8213;SDS011;4148;47.974;7.824;2024-03-02T11:17:25;1.70;;;1.20;;
8213;SDS011;4148;47.974;7.824;2024-03-02T11:19:53;1.70;;;1.13;;
8213;SDS011;4148;47.974;7.824;2024-03-02T11:22:24;1.70;;;1.20;;
8213;SDS011;4148;47.974;7.824;2024-03-02T11:24:54;1.73;;;1.10;;
8213;SDS011;4148;47.974;7.824;2024-03-02T11:33:22;2.20;;;1.50;;
8213;SDS011;4148;47.974;7.824;2024-03-02T11:35:53;2.00;;;1.33;;
8213;SDS011;4148;47.974;7.824;2024-03-02T11:38:25;2.53;;;1.90;;
8213;SDS011;4148;47.974;7.824;2024-03-02T11:40:57;2.47;;;1.60;;
8213;SDS011;4148;47.974;7.824;2024-03-02T11:43:27;2.30;;;1.57;;
8213;SDS011;4148;47.974;7.824;2024-03-02T11:45:59;3.27;;;1.63;;
8213;SDS011;4148;47.974;7.824;2024-03-02T11:48:30;3.40;;;1.67;;
8213;SDS011;4148;47.974;7.824;2024-03-02T11:50:59;1.80;;;1.37;;
8213;SDS011;4148;47.974;7.824;2024-03-02T11:53:28;1.90;;;1.20;;
8213;SDS011;4148;47.974;7.824;2024-03-02T11:56:02;2.47;;;1.27;;
8213;SDS011;4148;47.974;7.824;2024-03-02T11:58:35;2.20;;;1.50;;
8213;SDS011;4148;47.974;7.824;2024-03-02T12:01:04;1.80;;;1.20;;
8213;SDS011;4148;47.974;7.824;2024-03-02T12:03:32;2.30;;;1.50;;
8213;SDS011;4148;47.974;7.824;2024-03-02T12:06:02;2.10;;;1.40;;
8213;SDS011;4148;47.974;7.824;2024-03-02T12:08:32;1.70;;;1.23;;
8213;SDS011;4148;47.974;7.824;2024-03-02T12:11:00;1.80;;;1.30;;
8213;SDS011;4148;47.974;7.824;2024-03-02T12:13:30;1.50;;;1.10;;
8213;SDS011;4148;47.974;7.824;2024-03-02T12:15:59;1.90;;;1.10;;
8213;SDS011;4148;47.974;7.824;2024-03-02T12:18:27;1.70;;;1.10;;
8213;SDS011;4148;47.974;7.824;2024-03-02T12:20:55;1.60;;;1.00;;
8213;SDS011;4148;47.974;7.824;2024-03-02T12:23:24;1.40;;;0.90;;
8213;SDS011;4148;47.974;7.824;2024-03-02T12:25:53;1.57;;;1.10;;
8213;SDS011;4148;47.974;7.824;2024-03-02T12:28:22;1.57;;;1.03;;
8213;SDS011;4148;47.974;7.824;2024-03-02T12:30:50;1.73;;;1.07;;
8213;SDS011;4148;47.974;7.824;2024-03-02T12:33:19;1.70;;;1.10;;
8213;SDS011;4148;47.974;7.824;2024-03-02T12:35:48;1.50;;;1.03;;
8213;SDS011;4148;47.974;7.824;2024-03-02T12:38:16;1.50;;;0.90;;
8213;SDS011;4148;47.974;7.824;2024-03-02T12:40:47;1.63;;;1.03;;
8213;SDS011;4148;47.974;7.824;2024-03-02T12:43:15;1.60;;;1.03;;
8213;SDS011;4148;47.974;7.824;2024-03-02T12:45:44;2.67;;;0.90;;
8213;SDS011;4148;47.974;7.824;2024-03-02T12:48:13;1.60;;;1.00;;
8213;SDS011;4148;47.974;7.824;2024-03-02T12:50:41;1.53;;;0.80;;
8213;SDS011;4148;47.974;7.824;2024-03-02T12:53:13;1.83;;;1.10;;
8213;SDS011;4148;47.974;7.824;2024-03-02T12:55:43;2.77;;;1.20;;
8213;SDS011;4148;47.974;7.824;2024-03-02T12:58:16;1.30;;;0.80;;
8213;SDS011;4148;47.974;7.824;2024-03-02T13:00:46;1.40;;;0.97;;
8213;SDS011;4148;47.974;7.824;2024-03-02T13:03:14;1.80;;;1.00;;
8213;SDS011;4148;47.974;7.824;2024-03-02T13:05:47;1.37;;;0.80;;
8213;SDS011;4148;47.974;7.824;2024-03-02T13:08:16;1.63;;;1.00;;
8213;SDS011;4148;47.974;7.824;2024-03-02T13:10:44;1.60;;;0.90;;
8213;SDS011;4148;47.974;7.824;2024-03-02T13:13:12;2.03;;;0.90;;
8213;SDS011;4148;47.974;7.824;2024-03-02T13:15:41;1.33;;;0.90;;
8213;SDS011;4148;47.974;7.824;2024-03-02T13:18:11;1.60;;;0.80;;
8213;SDS011;4148;47.974;7.824;2024-03-02T13:20:40;2.73;;;1.10;;
8213;SDS011;4148;47.974;7.824;2024-03-02T13:23:08;1.73;;;1.27;;
8213;SDS011;4148;47.974;7.824;2024-03-02T13:25:36;2.40;;;1.30;;
8213;SDS011;4148;47.974;7.824;2024-03-02T13:28:04;2.10;;;1.40;;
8213;SDS011;4148;47.974;7.824;2024-03-02T13:30:33;2.43;;;1.30;;
8213;SDS011;4148;47.974;7.824;2024-03-02T13:33:01;2.67;;;1.40;;
8213;SDS011;4148;47.974;7.824;2024-03-02T13:35:31;1.80;;;1.33;;
8213;SDS011;4148;47.974;7.824;2024-03-02T13:37:58;1.93;;;1.23;;
8213;SDS011;4148;47.974;7.824;2024-03-02T13:40:26;1.97;;;1.40;;
8213;SDS011;4148;47.974;7.824;2024-03-02T13:42:55;1.90;;;1.20;;
8213;SDS011;4148;47.974;7.824;2024-03-02T13:45:23;2.03;;;1.27;;
8213;SDS011;4148;47.974;7.824;2024-03-02T13:47:51;2.07;;;1.23;;
8213;SDS011;4148;47.974;7.824;2024-03-02T13:50:19;2.30;;;1.10;;
8213;SDS011;4148;47.974;7.824;2024-03-02T13:52:49;3.07;;;1.40;;
8213;SDS011;4148;47.974;7.824;2024-03-02T13:55:17;2.30;;;1.60;;
8213;SDS011;4148;47.974;7.824;2024-03-02T13:57:46;3.57;;;1.90;;
8213;SDS011;4148;47.974;7.824;2024-03-02T14:00:15;2.97;;;1.47;;
8213;SDS011;4148;47.974;7.824;2024-03-02T14:02:43;2.50;;;1.40;;
8213;SDS011;4148;47.974;7.824;2024-03-02T14:05:13;3.23;;;1.73;;
8213;SDS011;4148;47.974;7.824;2024-03-02T14:07:41;3.83;;;2.33;;
8213;SDS011;4148;47.974;7.824;2024-03-02T14:10:11;2.47;;;1.60;;
8213;SDS011;4148;47.974;7.824;2024-03-02T14:12:40;3.37;;;1.90;;
8213;SDS011;4148;47.974;7.824;2024-03-02T14:15:08;3.03;;;1.80;;
8213;SDS011;4148;47.974;7.824;2024-03-02T14:17:37;2.93;;;2.20;;
8213;SDS011;4148;47.974;7.824;2024-03-02T14:20:05;2.53;;;1.63;;
8213;SDS011;4148;47.974;7.824;2024-03-02T14:22:36;2.00;;;1.40;;
8213;SDS011;4148;47.974;7.824;2024-03-02T14:25:04;1.97;;;1.30;;
8213;SDS011;4148;47.974;7.824;2024-03-02T14:27:34;1.60;;;1.00;;
8213;SDS011;4148;47.974;7.824;2024-03-02T14:30:22;2.80;;;1.90;;
8213;SDS011;4148;47.974;7.824;2024-03-02T14:32:50;3.30;;;1.73;;
8213;SDS011;4148;47.974;7.824;2024-03-02T14:35:18;2.40;;;1.80;;
8213;SDS011;4148;47.974;7.824;2024-03-02T14:37:49;3.50;;;1.90;;
8213;SDS011;4148;47.974;7.824;2024-03-02T14:40:17;2.17;;;1.50;;
8213;SDS011;4148;47.974;7.824;2024-03-02T14:42:46;3.73;;;2.07;;
8213;SDS011;4148;47.974;7.824;2024-03-02T14:45:14;2.20;;;2.00;;
8213;SDS011;4148;47.974;7.824;2024-03-02T14:47:42;4.17;;;2.10;;
8213;SDS011;4148;47.974;7.824;2024-03-02T14:50:10;2.43;;;1.57;;
8213;SDS011;4148;47.974;7.824;2024-03-02T14:52:39;2.43;;;1.63;;
8213;SDS011;4148;47.974;7.824;2024-03-02T14:55:11;3.20;;;1.53;;
8213;SDS011;4148;47.974;7.824;2024-03-02T14:57:39;2.10;;;1.67;;
8213;SDS011;4148;47.974;7.824;2024-03-02T15:00:09;2.20;;;1.70;;
8213;SDS011;4148;47.974;7.824;2024-03-02T15:02:38;2.53;;;1.73;;
8213;SDS011;4148;47.974;7.824;2024-03-02T15:05:06;3.67;;;1.80;;
8213;SDS011;4148;47.974;7.824;2024-03-02T15:07:35;3.63;;;2.03;;
8213;SDS011;4148;47.974;7.824;2024-03-02T15:10:05;3.30;;;2.17;;
8213;SDS011;4148;47.974;7.824;2024-03-02T15:12:34;3.03;;;1.87;;
8213;SDS011;4148;47.974;7.824;2024-03-02T15:15:03;2.40;;;1.80;;
8213;SDS011;4148;47.974;7.824;2024-03-02T15:17:33;5.43;;;1.90;;
8213;SDS011;4148;47.974;7.824;2024-03-02T15:20:01;2.93;;;1.67;;
8213;SDS011;4148;47.974;7.824;2024-03-02T15:22:30;1.93;;;1.50;;
8213;SDS011;4148;47.974;7.824;2024-03-02T15:24:58;2.50;;;1.60;;
8213;SDS011;4148;47.974;7.824;2024-03-02T15:27:26;5.77;;;2.23;;
8213;SDS011;4148;47.974;7.824;2024-03-02T15:29:55;2.30;;;1.60;;
8213;SDS011;4148;47.974;7.824;2024-03-02T15:32:24;3.13;;;1.63;;